sensor_id;sensor_type;location;lat;lon;timestamp;pressure;altitude;pressure_sealevel;temperature;humidity
29879;BME280;16752;53.364;-1.488;2022-09-27T00:00:43;99154.66;;;17.54;37.17
29879;BME280;16752;53.364;-1.488;2022-09-27T00:03:11;99151.97;;;17.62;36.86
29879;BME280;16752;53.364;-1.488;2022-09-27T00:05:44;99154.88;;;17.76;36.70
29879;BME280;16752;53.364;-1.488;2022-09-27T00:08:18;99148.75;;;17.75;36.50
29879;BME280;16752;53.364;-1.488;2022-09-27T00:10:56;99133.88;;;17.74;35.98
29879;BME280;16752;53.364;-1.488;2022-09-27T00:13:29;99141.97;;;17.81;35.96
29879;BME280;16752;53.364;-1.488;2022-09-27T00:16:05;99153.25;;;17.75;36.43
29879;BME280;16752;53.364;-1.488;2022-09-27T00:19:01;99152.63;;;17.64;36.06
29879;BME280;16752;53.364;-1.488;2022-09-27T00:21:46;99154.94;;;17.67;35.81
29879;BME280;16752;53.364;-1.488;2022-09-27T00:24:20;99158.03;;;17.79;35.92
29879;BME280;16752;53.364;-1.488;2022-09-27T00:26:57;99162.53;;;17.70;35.88
29879;BME280;16752;53.364;-1.488;2022-09-27T00:29:50;99158.34;;;17.76;35.61
29879;BME280;16752;53.364;-1.488;2022-09-27T00:32:22;99157.59;;;17.90;35.19
29879;BME280;16752;53.364;-1.488;2022-09-27T00:37:35;99144.88;;;17.86;35.57
29879;BME280;16752;53.364;-1.488;2022-09-27T00:40:15;99137.16;;;17.99;35.30
29879;BME280;16752;53.364;-1.488;2022-09-27T00:42:52;99127.22;;;17.78;35.78
29879;BME280;16752;53.364;-1.488;2022-09-27T00:45:31;99126.22;;;18.02;35.54
29879;BME280;16752;53.364;-1.488;2022-09-27T00:48:12;99129.69;;;18.02;35.80
29879;BME280;16752;53.364;-1.488;2022-09-27T00:50:57;99132.84;;;17.98;35.70
29879;BME280;16752;53.364;-1.488;2022-09-27T00:53:57;99126.94;;;17.73;35.53
29879;BME280;16752;53.364;-1.488;2022-09-27T00:56:43;99125.88;;;17.51;35.57
29879;BME280;16752;53.364;-1.488;2022-09-27T00:59:22;99119.72;;;17.59;35.74
29879;BME280;16752;53.364;-1.488;2022-09-27T01:02:02;99119.63;;;17.75;36.03
29879;BME280;16752;53.364;-1.488;2022-09-27T01:04:40;99110.00;;;17.51;36.17
29879;BME280;16752;53.364;-1.488;2022-09-27T01:07:28;99121.72;;;17.57;36.32
29879;BME280;16752;53.364;-1.488;2022-09-27T01:10:03;99113.25;;;17.61;36.13
29879;BME280;16752;53.364;-1.488;2022-09-27T01:15:15;99106.00;;;17.55;36.54
29879;BME280;16752;53.364;-1.488;2022-09-27T01:18:02;99105.91;;;17.18;37.02
29879;BME280;16752;53.364;-1.488;2022-09-27T01:23:30;99109.44;;;17.33;37.35
29879;BME280;16752;53.364;-1.488;2022-09-27T01:34:31;99101.84;;;17.38;37.35
29879;BME280;16752;53.364;-1.488;2022-09-27T01:37:10;99092.88;;;17.08;38.09
29879;BME280;16752;53.364;-1.488;2022-09-27T01:45:28;99098.09;;;17.24;37.84
29879;BME280;16752;53.364;-1.488;2022-09-27T01:48:32;99093.56;;;16.71;38.58
29879;BME280;16752;53.364;-1.488;2022-09-27T01:51:10;99094.53;;;17.09;38.06
29879;BME280;16752;53.364;-1.488;2022-09-27T01:53:43;99094.94;;;16.98;38.33
29879;BME280;16752;53.364;-1.488;2022-09-27T01:56:16;99084.13;;;16.76;38.90
29879;BME280;16752;53.364;-1.488;2022-09-27T02:01:41;99065.56;;;17.16;38.30
29879;BME280;16752;53.364;-1.488;2022-09-27T02:04:16;99072.97;;;17.20;38.20
29879;BME280;16752;53.364;-1.488;2022-09-27T02:06:53;99072.13;;;16.97;38.88
29879;BME280;16752;53.364;-1.488;2022-09-27T02:09:38;99066.38;;;16.85;39.07
29879;BME280;16752;53.364;-1.488;2022-09-27T02:12:30;99056.53;;;16.71;38.99
29879;BME280;16752;53.364;-1.488;2022-09-27T02:15:54;99055.25;;;16.98;38.63
29879;BME280;16752;53.364;-1.488;2022-09-27T02:18:33;99049.56;;;16.70;38.71
29879;BME280;16752;53.364;-1.488;2022-09-27T02:21:15;99037.06;;;16.47;38.49
29879;BME280;16752;53.364;-1.488;2022-09-27T02:24:06;99035.97;;;16.81;37.74
29879;BME280;16752;53.364;-1.488;2022-09-27T02:27:02;99028.63;;;16.99;37.45
29879;BME280;16752;53.364;-1.488;2022-09-27T02:29:49;99017.03;;;17.00;37.08
29879;BME280;16752;53.364;-1.488;2022-09-27T02:32:35;99014.00;;;16.80;36.85
29879;BME280;16752;53.364;-1.488;2022-09-27T02:35:08;99020.97;;;17.04;36.29
29879;BME280;16752;53.364;-1.488;2022-09-27T02:37:42;99023.44;;;17.29;36.14
29879;BME280;16752;53.364;-1.488;2022-09-27T02:40:15;99015.78;;;17.34;36.05
29879;BME280;16752;53.364;-1.488;2022-09-27T02:42:51;99005.16;;;17.42;35.79
29879;BME280;16752;53.364;-1.488;2022-09-27T02:45:23;99004.81;;;17.45;36.15
29879;BME280;16752;53.364;-1.488;2022-09-27T02:48:18;98993.47;;;17.36;36.23
29879;BME280;16752;53.364;-1.488;2022-09-27T02:56:52;98985.75;;;17.27;35.59
29879;BME280;16752;53.364;-1.488;2022-09-27T02:59:48;98986.63;;;17.42;35.48
29879;BME280;16752;53.364;-1.488;2022-09-27T03:02:29;98985.28;;;17.46;35.68
29879;BME280;16752;53.364;-1.488;2022-09-27T03:05:33;98974.69;;;17.46;35.33
29879;BME280;16752;53.364;-1.488;2022-09-27T03:08:07;98972.13;;;17.53;35.29
29879;BME280;16752;53.364;-1.488;2022-09-27T03:10:40;98983.91;;;17.50;35.43
29879;BME280;16752;53.364;-1.488;2022-09-27T03:13:19;98975.59;;;17.53;35.04
29879;BME280;16752;53.364;-1.488;2022-09-27T03:16:13;98966.69;;;17.31;35.56
29879;BME280;16752;53.364;-1.488;2022-09-27T03:18:49;98962.53;;;17.52;35.32
29879;BME280;16752;53.364;-1.488;2022-09-27T03:21:43;98955.38;;;17.60;35.25
29879;BME280;16752;53.364;-1.488;2022-09-27T03:24:25;98952.53;;;17.62;35.03
29879;BME280;16752;53.364;-1.488;2022-09-27T03:26:57;98952.41;;;17.55;35.31
29879;BME280;16752;53.364;-1.488;2022-09-27T03:29:36;98947.06;;;17.03;36.24
29879;BME280;16752;53.364;-1.488;2022-09-27T03:32:15;98946.69;;;17.66;35.34
29879;BME280;16752;53.364;-1.488;2022-09-27T03:35:15;98943.22;;;17.66;35.63
29879;BME280;16752;53.364;-1.488;2022-09-27T03:38:13;98938.50;;;17.76;35.48
29879;BME280;16752;53.364;-1.488;2022-09-27T03:40:45;98927.75;;;17.40;36.24
29879;BME280;16752;53.364;-1.488;2022-09-27T03:43:17;98929.22;;;17.80;35.33
29879;BME280;16752;53.364;-1.488;2022-09-27T03:45:50;98923.00;;;17.88;35.46
29879;BME280;16752;53.364;-1.488;2022-09-27T03:48:22;98927.38;;;17.81;35.38
29879;BME280;16752;53.364;-1.488;2022-09-27T03:51:29;98927.47;;;18.02;35.04
29879;BME280;16752;53.364;-1.488;2022-09-27T03:54:06;98930.75;;;18.04;34.90
29879;BME280;16752;53.364;-1.488;2022-09-27T03:56:40;98917.69;;;17.88;35.20
29879;BME280;16752;53.364;-1.488;2022-09-27T03:59:19;98919.22;;;17.97;35.02
29879;BME280;16752;53.364;-1.488;2022-09-27T04:01:51;98921.00;;;17.52;36.00
29879;BME280;16752;53.364;-1.488;2022-09-27T04:04:24;98920.06;;;17.83;35.32
29879;BME280;16752;53.364;-1.488;2022-09-27T04:07:00;98917.31;;;17.91;35.42
29879;BME280;16752;53.364;-1.488;2022-09-27T04:09:34;98921.19;;;17.36;36.16
29879;BME280;16752;53.364;-1.488;2022-09-27T04:12:06;98922.25;;;17.94;35.18
29879;BME280;16752;53.364;-1.488;2022-09-27T04:15:10;98918.34;;;17.52;36.15
29879;BME280;16752;53.364;-1.488;2022-09-27T04:17:42;98922.53;;;17.69;36.05
29879;BME280;16752;53.364;-1.488;2022-09-27T04:20:23;98911.94;;;17.69;36.15
29879;BME280;16752;53.364;-1.488;2022-09-27T04:23:07;98912.03;;;17.01;37.04
29879;BME280;16752;53.364;-1.488;2022-09-27T04:25:42;98921.78;;;17.00;37.41
29879;BME280;16752;53.364;-1.488;2022-09-27T04:28:18;98907.75;;;17.37;36.87
29879;BME280;16752;53.364;-1.488;2022-09-27T04:30:50;98911.75;;;17.33;37.17
29879;BME280;16752;53.364;-1.488;2022-09-27T04:33:22;98910.91;;;17.18;37.49
29879;BME280;16752;53.364;-1.488;2022-09-27T04:35:54;98905.47;;;16.74;38.45
29879;BME280;16752;53.364;-1.488;2022-09-27T04:39:03;98897.63;;;17.03;37.86
29879;BME280;16752;53.364;-1.488;2022-09-27T04:41:35;98897.03;;;17.16;37.54
29879;BME280;16752;53.364;-1.488;2022-09-27T04:44:06;98897.09;;;17.08;38.11
29879;BME280;16752;53.364;-1.488;2022-09-27T04:46:42;98888.91;;;17.18;37.64
29879;BME280;16752;53.364;-1.488;2022-09-27T04:49:15;98889.44;;;16.90;38.35
29879;BME280;16752;53.364;-1.488;2022-09-27T04:51:54;98894.16;;;16.80;39.06
29879;BME280;16752;53.364;-1.488;2022-09-27T04:54:26;98890.75;;;17.17;38.37
29879;BME280;16752;53.364;-1.488;2022-09-27T04:57:03;98881.63;;;17.34;38.06
29879;BME280;16752;53.364;-1.488;2022-09-27T04:59:35;98882.19;;;16.92;39.12
29879;BME280;16752;53.364;-1.488;2022-09-27T05:02:08;98878.88;;;16.90;39.32
29879;BME280;16752;53.364;-1.488;2022-09-27T05:04:42;98882.25;;;17.22;39.08
29879;BME280;16752;53.364;-1.488;2022-09-27T05:07:14;98872.03;;;17.19;39.04
29879;BME280;16752;53.364;-1.488;2022-09-27T05:09:46;98871.44;;;17.08;39.72
29879;BME280;16752;53.364;-1.488;2022-09-27T05:12:18;98874.97;;;17.24;39.40
29879;BME280;16752;53.364;-1.488;2022-09-27T05:14:59;98882.81;;;17.32;39.37
29879;BME280;16752;53.364;-1.488;2022-09-27T05:17:30;98887.53;;;17.22;39.77
29879;BME280;16752;53.364;-1.488;2022-09-27T05:20:07;98882.94;;;17.38;39.45
29879;BME280;16752;53.364;-1.488;2022-09-27T05:22:40;98885.09;;;17.20;39.96
29879;BME280;16752;53.364;-1.488;2022-09-27T05:25:11;98886.28;;;17.32;39.71
29879;BME280;16752;53.364;-1.488;2022-09-27T05:27:44;98882.44;;;17.35;39.72
29879;BME280;16752;53.364;-1.488;2022-09-27T05:30:16;98878.16;;;17.34;39.83
29879;BME280;16752;53.364;-1.488;2022-09-27T05:32:43;98885.94;;;17.35;39.92
29879;BME280;16752;53.364;-1.488;2022-09-27T05:35:19;98867.06;;;17.01;40.96
29879;BME280;16752;53.364;-1.488;2022-09-27T05:37:55;98867.56;;;17.19;40.49
29879;BME280;16752;53.364;-1.488;2022-09-27T05:40:28;98867.44;;;17.13;41.11
29879;BME280;16752;53.364;-1.488;2022-09-27T05:43:00;98864.25;;;16.79;42.06
29879;BME280;16752;53.364;-1.488;2022-09-27T05:45:31;98864.41;;;17.01;41.54
29879;BME280;16752;53.364;-1.488;2022-09-27T05:48:03;98853.72;;;16.94;41.62
29879;BME280;16752;53.364;-1.488;2022-09-27T05:50:37;98859.53;;;16.90;41.68
29879;BME280;16752;53.364;-1.488;2022-09-27T05:53:17;98864.78;;;16.98;41.49
29879;BME280;16752;53.364;-1.488;2022-09-27T05:55:54;98855.88;;;17.28;40.92
29879;BME280;16752;53.364;-1.488;2022-09-27T05:58:26;98867.28;;;17.29;40.74
29879;BME280;16752;53.364;-1.488;2022-09-27T06:00:59;98862.75;;;17.37;40.54
29879;BME280;16752;53.364;-1.488;2022-09-27T06:03:31;98867.13;;;17.45;40.31
29879;BME280;16752;53.364;-1.488;2022-09-27T06:06:03;98869.06;;;17.36;40.46
29879;BME280;16752;53.364;-1.488;2022-09-27T06:08:36;98864.78;;;17.13;40.82
29879;BME280;16752;53.364;-1.488;2022-09-27T06:11:13;98864.72;;;17.21;40.71
29879;BME280;16752;53.364;-1.488;2022-09-27T06:13:43;98866.28;;;17.15;40.81
29879;BME280;16752;53.364;-1.488;2022-09-27T06:16:15;98876.69;;;17.31;40.54
29879;BME280;16752;53.364;-1.488;2022-09-27T06:18:46;98884.28;;;17.34;40.56
29879;BME280;16752;53.364;-1.488;2022-09-27T06:21:16;98884.22;;;17.42;40.45
29879;BME280;16752;53.364;-1.488;2022-09-27T06:23:52;98888.31;;;17.45;40.64
29879;BME280;16752;53.364;-1.488;2022-09-27T06:26:25;98885.41;;;17.40;40.70
29879;BME280;16752;53.364;-1.488;2022-09-27T06:28:57;98873.53;;;17.13;41.29
29879;BME280;16752;53.364;-1.488;2022-09-27T06:31:39;98870.56;;;17.31;40.85
29879;BME280;16752;53.364;-1.488;2022-09-27T06:34:10;98875.56;;;17.63;40.26
29879;BME280;16752;53.364;-1.488;2022-09-27T06:36:43;98873.41;;;17.82;40.06
29879;BME280;16752;53.364;-1.488;2022-09-27T06:39:15;98872.66;;;17.88;39.94
29879;BME280;16752;53.364;-1.488;2022-09-27T06:41:51;98871.72;;;17.95;40.00
29879;BME280;16752;53.364;-1.488;2022-09-27T06:44:26;98857.97;;;17.85;40.29
29879;BME280;16752;53.364;-1.488;2022-09-27T06:47:18;98857.56;;;18.03;39.89
29879;BME280;16752;53.364;-1.488;2022-09-27T06:52:50;98846.97;;;17.74;40.13
29879;BME280;16752;53.364;-1.488;2022-09-27T06:55:29;98858.47;;;17.95;39.94
29879;BME280;16752;53.364;-1.488;2022-09-27T06:58:10;98847.16;;;18.01;40.11
29879;BME280;16752;53.364;-1.488;2022-09-27T07:01:41;98853.38;;;17.94;40.16
29879;BME280;16752;53.364;-1.488;2022-09-27T07:07:25;98837.00;;;18.05;39.86
29879;BME280;16752;53.364;-1.488;2022-09-27T07:09:58;98845.81;;;18.27;39.54
29879;BME280;16752;53.364;-1.488;2022-09-27T07:19:06;98834.28;;;18.56;38.90
29879;BME280;16752;53.364;-1.488;2022-09-27T07:21:49;98832.88;;;18.39;38.93
29879;BME280;16752;53.364;-1.488;2022-09-27T07:24:31;98839.38;;;18.72;38.29
29879;BME280;16752;53.364;-1.488;2022-09-27T07:27:05;98828.50;;;18.88;38.11
29879;BME280;16752;53.364;-1.488;2022-09-27T07:32:37;98839.22;;;19.02;37.64
29879;BME280;16752;53.364;-1.488;2022-09-27T07:35:03;98835.78;;;19.08;37.59
29879;BME280;16752;53.364;-1.488;2022-09-27T07:37:38;98834.22;;;18.49;38.46
29879;BME280;16752;53.364;-1.488;2022-09-27T07:40:07;98825.72;;;18.97;37.74
29879;BME280;16752;53.364;-1.488;2022-09-27T07:42:53;98836.31;;;19.24;37.05
29879;BME280;16752;53.364;-1.488;2022-09-27T07:45:22;98829.09;;;19.12;37.08
29879;BME280;16752;53.364;-1.488;2022-09-27T07:50:48;98840.75;;;19.45;36.17
29879;BME280;16752;53.364;-1.488;2022-09-27T07:53:14;98841.53;;;19.39;36.90
29879;BME280;16752;53.364;-1.488;2022-09-27T07:58:52;98832.84;;;19.93;35.33
29879;BME280;16752;53.364;-1.488;2022-09-27T08:01:17;98833.53;;;20.08;34.89
29879;BME280;16752;53.364;-1.488;2022-09-27T08:03:44;98827.59;;;20.00;34.52
29879;BME280;16752;53.364;-1.488;2022-09-27T08:06:17;98837.06;;;20.22;34.13
29879;BME280;16752;53.364;-1.488;2022-09-27T08:08:43;98822.47;;;19.98;34.67
29879;BME280;16752;53.364;-1.488;2022-09-27T08:11:14;98833.22;;;20.38;34.18
29879;BME280;16752;53.364;-1.488;2022-09-27T08:13:42;98831.94;;;19.73;34.86
29879;BME280;16752;53.364;-1.488;2022-09-27T08:16:11;98822.63;;;20.44;33.84
29879;BME280;16752;53.364;-1.488;2022-09-27T08:21:49;98825.34;;;20.91;32.95
29879;BME280;16752;53.364;-1.488;2022-09-27T08:24:58;98827.19;;;20.97;32.79
29879;BME280;16752;53.364;-1.488;2022-09-27T08:27:42;98827.38;;;21.02;32.28
29879;BME280;16752;53.364;-1.488;2022-09-27T08:30:08;98819.59;;;21.14;30.63
29879;BME280;16752;53.364;-1.488;2022-09-27T08:32:36;98812.41;;;21.01;31.03
29879;BME280;16752;53.364;-1.488;2022-09-27T08:35:03;98825.97;;;21.32;30.00
29879;BME280;16752;53.364;-1.488;2022-09-27T08:37:31;98813.03;;;21.43;30.35
29879;BME280;16752;53.364;-1.488;2022-09-27T08:39:56;98821.59;;;21.58;30.85
29879;BME280;16752;53.364;-1.488;2022-09-27T08:45:30;98829.47;;;21.98;28.88
29879;BME280;16752;53.364;-1.488;2022-09-27T08:47:57;98826.16;;;22.15;28.18
29879;BME280;16752;53.364;-1.488;2022-09-27T08:50:34;98826.69;;;22.24;27.52
29879;BME280;16752;53.364;-1.488;2022-09-27T08:53:41;98828.50;;;22.37;27.93
29879;BME280;16752;53.364;-1.488;2022-09-27T09:00:18;98831.50;;;22.47;27.21
29879;BME280;16752;53.364;-1.488;2022-09-27T09:05:54;98826.97;;;22.47;26.19
29879;BME280;16752;53.364;-1.488;2022-09-27T09:11:02;98814.94;;;22.38;26.44
29879;BME280;16752;53.364;-1.488;2022-09-27T09:19:15;98807.84;;;22.57;27.34
29879;BME280;16752;53.364;-1.488;2022-09-27T09:26:57;98804.84;;;23.03;25.94
29879;BME280;16752;53.364;-1.488;2022-09-27T09:29:45;98800.66;;;23.32;25.37
29879;BME280;16752;53.364;-1.488;2022-09-27T09:32:22;98802.53;;;23.07;25.66
29879;BME280;16752;53.364;-1.488;2022-09-27T09:34:53;98797.03;;;23.45;25.77
29879;BME280;16752;53.364;-1.488;2022-09-27T09:40:20;98793.91;;;23.48;25.08
29879;BME280;16752;53.364;-1.488;2022-09-27T09:45:35;98795.84;;;23.77;24.61
29879;BME280;16752;53.364;-1.488;2022-09-27T09:54:52;98790.41;;;23.84;24.10
29879;BME280;16752;53.364;-1.488;2022-09-27T10:03:11;98807.22;;;24.21;23.51
29879;BME280;16752;53.364;-1.488;2022-09-27T10:05:47;98800.97;;;24.27;22.89
29879;BME280;16752;53.364;-1.488;2022-09-27T10:10:54;98787.78;;;23.66;24.80
29879;BME280;16752;53.364;-1.488;2022-09-27T10:21:27;98789.78;;;24.49;23.14
29879;BME280;16752;53.364;-1.488;2022-09-27T10:26:46;98781.94;;;24.89;22.77
29879;BME280;16752;53.364;-1.488;2022-09-27T10:29:44;98764.47;;;24.98;22.19
29879;BME280;16752;53.364;-1.488;2022-09-27T10:32:21;98778.81;;;25.15;22.49
29879;BME280;16752;53.364;-1.488;2022-09-27T10:40:35;98774.28;;;25.39;21.33
29879;BME280;16752;53.364;-1.488;2022-09-27T10:48:44;98754.09;;;25.37;21.91
29879;BME280;16752;53.364;-1.488;2022-09-27T10:51:28;98756.56;;;25.15;23.17
29879;BME280;16752;53.364;-1.488;2022-09-27T10:54:22;98755.84;;;25.31;22.55
29879;BME280;16752;53.364;-1.488;2022-09-27T10:56:59;98745.22;;;24.66;22.27
29879;BME280;16752;53.364;-1.488;2022-09-27T11:02:44;98747.25;;;24.29;22.73
29879;BME280;16752;53.364;-1.488;2022-09-27T11:08:51;98737.31;;;24.18;22.66
29879;BME280;16752;53.364;-1.488;2022-09-27T11:54:14;98706.59;;;25.20;22.25
29879;BME280;16752;53.364;-1.488;2022-09-27T12:13:48;98708.63;;;24.36;23.76
29879;BME280;16752;53.364;-1.488;2022-09-27T12:21:56;98712.97;;;24.07;23.25
29879;BME280;16752;53.364;-1.488;2022-09-27T12:30:51;98698.75;;;24.07;23.49
29879;BME280;16752;53.364;-1.488;2022-09-27T12:33:48;98695.41;;;24.12;23.91
29879;BME280;16752;53.364;-1.488;2022-09-27T13:39:41;98651.47;;;26.60;20.28
29879;BME280;16752;53.364;-1.488;2022-09-27T14:06:25;98639.69;;;27.00;21.71
29879;BME280;16752;53.364;-1.488;2022-09-27T14:32:04;98628.75;;;25.84;20.86
29879;BME280;16752;53.364;-1.488;2022-09-27T14:40:57;98635.25;;;25.88;21.81
29879;BME280;16752;53.364;-1.488;2022-09-27T14:46:25;98625.00;;;25.85;21.76
29879;BME280;16752;53.364;-1.488;2022-09-27T15:06:36;98645.53;;;25.11;23.36
29879;BME280;16752;53.364;-1.488;2022-09-27T15:12:23;98632.47;;;25.26;23.60
29879;BME280;16752;53.364;-1.488;2022-09-27T15:18:46;98619.47;;;24.94;23.14
29879;BME280;16752;53.364;-1.488;2022-09-27T15:27:19;98648.13;;;24.59;24.31
29879;BME280;16752;53.364;-1.488;2022-09-27T15:29:55;98663.84;;;24.02;26.08
29879;BME280;16752;53.364;-1.488;2022-09-27T15:32:49;98658.63;;;23.65;26.91
29879;BME280;16752;53.364;-1.488;2022-09-27T15:46:32;98648.31;;;22.77;31.50
29879;BME280;16752;53.364;-1.488;2022-09-27T15:56:04;98644.72;;;22.22;31.77
29879;BME280;16752;53.364;-1.488;2022-09-27T16:17:26;98628.69;;;21.90;30.90
29879;BME280;16752;53.364;-1.488;2022-09-27T17:25:19;98620.63;;;20.83;33.49
29879;BME280;16752;53.364;-1.488;2022-09-27T18:15:04;98665.25;;;20.01;36.13
29879;BME280;16752;53.364;-1.488;2022-09-27T18:56:42;98689.25;;;19.53;36.80
